CheckWX is a tool to help pilots better visualize weather data.  It is not intended as a substitute for an official pre-flight weather briefing.

06:04:13 UTC

KBVS METAR
Skagit Regional Airport
Burlington/Mount Vernon, Washington, USA
Current

29 mins ago

KBVS 290535Z AUTO 00000KT 10SM CLR 14/10 A2994 RMK A01
Observed
May-29 @ 05:35 UTC
Visibility
Flight Rules
VFR
Cloud Levels
  • Clear skies
Temperature
14°C / 57°F
Dewpoint
10°C / 50°F
Humidity
77%
Altimeter
29.94" Hg
Pressure
1013.92 hPa
Previous

49 mins ago

KBVS 290515Z AUTO 00000KT 10SM CLR 15/10 A2994 RMK A01
Observed
May-29 @ 05:15 UTC
Visibility
Flight Rules
VFR
Cloud Levels
  • Clear skies
Temperature
15°C / 59°F
Dewpoint
10°C / 50°F
Humidity
72%
Altimeter
29.94" Hg
Pressure
1013.92 hPa
Previous

1 hour ago

KBVS 290455Z AUTO 00000KT 10SM CLR 16/10 A2994 RMK A01
Observed
May-29 @ 04:55 UTC
Visibility
Flight Rules
VFR
Cloud Levels
  • Clear skies
Temperature
16°C / 61°F
Dewpoint
10°C / 50°F
Humidity
68%
Altimeter
29.94" Hg
Pressure
1013.92 hPa